Terminal Aerodrome Forecast
Issued by NWS Amarillo, TX

Home | Current Version | Previous Version | Text Only | Print | Product List | Glossary On
Versions: 1 2 3 4 5 6 7 8 9 10 11 12 13 14 15 16 17 18
005
FTUS44 KAMA 202338
TAFAMA
TAF
KAMA 202338Z 2100/2124 34014G23KT P6SM SKC
     FM210300 33009KT P6SM SKC
     FM210900 25007KT P6SM SKC
     FM211700 22010KT P6SM SKC=

USA.gov is the U.S. government's official web portal to all federal, state and local government web resources and services.